VE85 weather

Bentayan Airport
Ujjain, Madhya Pradesh, India

Public forecast

Using degrees Celsius for public forecast. Weather courtesy of forecast.io.

METAR (pilot weather report)

Closest report is Devi Ahilyabai Holkar Airport, 22.9 nm (42.4 km) SSW. Retrieved 2019/03/25 13:00 UTC (25 minutes ago):

VAID 251300Z 31006KT 5000 HZ NSC 34/05 Q1012 NOSIG

TAF (pilot weather forecast)

Forecast is more than 12 hours old.

Closest forecast is Devi Ahilyabai Holkar Airport, 22.9 nm (42.4 km) SSW. Retrieved 2018/03/28 12:00 UTC (12 months ago):

TAF VAID 281100Z 2812/2821 32010KT 6000 NSC